sensor_id;sensor_type;location;lat;lon;timestamp;P1;durP1;ratioP1;P2;durP2;ratioP2
58978;SDS011;44763;50.464;30.612;2022-07-11T00:00:06;2.20;;;0.72;;
58978;SDS011;44763;50.464;30.612;2022-07-11T00:02:37;1.42;;;1.32;;
58978;SDS011;44763;50.464;30.612;2022-07-11T00:05:07;0.80;;;0.78;;
58978;SDS011;44763;50.464;30.612;2022-07-11T00:07:35;1.55;;;0.68;;
58978;SDS011;44763;50.464;30.612;2022-07-11T00:10:02;1.07;;;0.70;;
58978;SDS011;44763;50.464;30.612;2022-07-11T00:12:31;2.05;;;0.50;;
58978;SDS011;44763;50.464;30.612;2022-07-11T00:14:57;0.65;;;0.50;;
58978;SDS011;44763;50.464;30.612;2022-07-11T00:17:25;0.50;;;0.50;;
58978;SDS011;44763;50.464;30.612;2022-07-11T00:22:19;0.75;;;0.62;;
58978;SDS011;44763;50.464;30.612;2022-07-11T00:24:46;1.17;;;0.37;;
58978;SDS011;44763;50.464;30.612;2022-07-11T00:27:13;1.80;;;0.50;;
58978;SDS011;44763;50.464;30.612;2022-07-11T00:29:40;0.40;;;0.40;;
58978;SDS011;44763;50.464;30.612;2022-07-11T00:34:34;1.20;;;1.20;;
58978;SDS011;44763;50.464;30.612;2022-07-11T00:37:01;1.90;;;0.60;;
58978;SDS011;44763;50.464;30.612;2022-07-11T00:39:27;1.32;;;0.57;;
58978;SDS011;44763;50.464;30.612;2022-07-11T00:41:54;0.98;;;0.53;;
58978;SDS011;44763;50.464;30.612;2022-07-11T00:46:46;1.60;;;0.72;;
58978;SDS011;44763;50.464;30.612;2022-07-11T00:51:38;0.87;;;0.50;;
58978;SDS011;44763;50.464;30.612;2022-07-11T00:56:32;0.42;;;0.42;;
58978;SDS011;44763;50.464;30.612;2022-07-11T00:58:59;0.60;;;0.60;;
58978;SDS011;44763;50.464;30.612;2022-07-11T01:01:26;0.68;;;0.60;;
58978;SDS011;44763;50.464;30.612;2022-07-11T01:03:53;0.78;;;0.62;;
58978;SDS011;44763;50.464;30.612;2022-07-11T01:06:19;0.90;;;0.45;;
58978;SDS011;44763;50.464;30.612;2022-07-11T01:11:12;0.30;;;0.30;;
58978;SDS011;44763;50.464;30.612;2022-07-11T01:13:42;4.12;;;0.57;;
58978;SDS011;44763;50.464;30.612;2022-07-11T01:16:16;0.53;;;0.50;;
58978;SDS011;44763;50.464;30.612;2022-07-11T01:18:45;2.95;;;0.40;;
58978;SDS011;44763;50.464;30.612;2022-07-11T01:21:27;0.82;;;0.57;;
58978;SDS011;44763;50.464;30.612;2022-07-11T01:24:05;0.82;;;0.45;;
58978;SDS011;44763;50.464;30.612;2022-07-11T01:26:33;0.47;;;0.40;;
58978;SDS011;44763;50.464;30.612;2022-07-11T01:29:08;1.80;;;0.30;;
58978;SDS011;44763;50.464;30.612;2022-07-11T01:31:39;0.45;;;0.30;;
58978;SDS011;44763;50.464;30.612;2022-07-11T01:34:08;0.88;;;0.20;;
58978;SDS011;44763;50.464;30.612;2022-07-11T01:36:38;1.85;;;0.40;;
58978;SDS011;44763;50.464;30.612;2022-07-11T01:39:05;2.37;;;0.53;;
58978;SDS011;44763;50.464;30.612;2022-07-11T01:41:32;0.65;;;0.33;;
58978;SDS011;44763;50.464;30.612;2022-07-11T01:43:59;0.72;;;0.40;;
58978;SDS011;44763;50.464;30.612;2022-07-11T01:46:25;0.82;;;0.40;;
58978;SDS011;44763;50.464;30.612;2022-07-11T01:48:52;0.33;;;0.33;;
58978;SDS011;44763;50.464;30.612;2022-07-11T01:53:45;0.62;;;0.62;;
58978;SDS011;44763;50.464;30.612;2022-07-11T01:56:11;0.93;;;0.40;;
58978;SDS011;44763;50.464;30.612;2022-07-11T01:58:37;1.00;;;0.37;;
58978;SDS011;44763;50.464;30.612;2022-07-11T02:01:03;1.20;;;0.25;;
58978;SDS011;44763;50.464;30.612;2022-07-11T02:03:30;1.22;;;0.20;;
58978;SDS011;44763;50.464;30.612;2022-07-11T02:05:57;0.40;;;0.30;;
58978;SDS011;44763;50.464;30.612;2022-07-11T02:08:23;0.47;;;0.40;;
58978;SDS011;44763;50.464;30.612;2022-07-11T02:10:51;0.40;;;0.40;;
58978;SDS011;44763;50.464;30.612;2022-07-11T02:13:19;0.65;;;0.50;;
58978;SDS011;44763;50.464;30.612;2022-07-11T02:15:48;0.55;;;0.25;;
58978;SDS011;44763;50.464;30.612;2022-07-11T02:18:17;0.57;;;0.20;;
58978;SDS011;44763;50.464;30.612;2022-07-11T02:20:44;1.35;;;0.40;;
58978;SDS011;44763;50.464;30.612;2022-07-11T02:23:12;0.45;;;0.40;;
58978;SDS011;44763;50.464;30.612;2022-07-11T02:25:39;0.60;;;0.40;;
58978;SDS011;44763;50.464;30.612;2022-07-11T02:28:06;1.90;;;0.33;;
58978;SDS011;44763;50.464;30.612;2022-07-11T02:30:34;0.37;;;0.35;;
58978;SDS011;44763;50.464;30.612;2022-07-11T02:33:01;2.98;;;0.70;;
58978;SDS011;44763;50.464;30.612;2022-07-11T02:35:29;1.65;;;0.47;;
58978;SDS011;44763;50.464;30.612;2022-07-11T02:37:57;1.32;;;0.55;;
58978;SDS011;44763;50.464;30.612;2022-07-11T02:42:49;0.50;;;0.40;;
58978;SDS011;44763;50.464;30.612;2022-07-11T02:45:15;0.45;;;0.30;;
58978;SDS011;44763;50.464;30.612;2022-07-11T02:47:41;0.72;;;0.70;;
58978;SDS011;44763;50.464;30.612;2022-07-11T02:50:08;1.15;;;0.20;;
58978;SDS011;44763;50.464;30.612;2022-07-11T02:52:37;0.90;;;0.53;;
58978;SDS011;44763;50.464;30.612;2022-07-11T02:55:08;0.65;;;0.45;;
58978;SDS011;44763;50.464;30.612;2022-07-11T02:57:37;2.08;;;0.20;;
58978;SDS011;44763;50.464;30.612;2022-07-11T03:00:06;0.45;;;0.33;;
58978;SDS011;44763;50.464;30.612;2022-07-11T03:02:40;0.93;;;0.40;;
58978;SDS011;44763;50.464;30.612;2022-07-11T03:05:07;1.15;;;0.40;;
58978;SDS011;44763;50.464;30.612;2022-07-11T03:07:34;0.40;;;0.30;;
58978;SDS011;44763;50.464;30.612;2022-07-11T03:10:01;0.55;;;0.40;;
58978;SDS011;44763;50.464;30.612;2022-07-11T03:12:28;0.45;;;0.40;;
58978;SDS011;44763;50.464;30.612;2022-07-11T03:17:21;0.72;;;0.62;;
58978;SDS011;44763;50.464;30.612;2022-07-11T03:19:48;0.42;;;0.40;;
58978;SDS011;44763;50.464;30.612;2022-07-11T03:22:16;0.40;;;0.35;;
58978;SDS011;44763;50.464;30.612;2022-07-11T03:24:44;0.72;;;0.55;;
58978;SDS011;44763;50.464;30.612;2022-07-11T03:27:10;1.70;;;0.65;;
58978;SDS011;44763;50.464;30.612;2022-07-11T03:29:37;4.47;;;0.82;;
58978;SDS011;44763;50.464;30.612;2022-07-11T03:32:03;1.05;;;0.50;;
58978;SDS011;44763;50.464;30.612;2022-07-11T03:34:31;2.25;;;0.70;;
58978;SDS011;44763;50.464;30.612;2022-07-11T03:39:23;0.82;;;0.20;;
58978;SDS011;44763;50.464;30.612;2022-07-11T03:41:49;0.40;;;0.40;;
58978;SDS011;44763;50.464;30.612;2022-07-11T03:46:42;2.75;;;1.65;;
58978;SDS011;44763;50.464;30.612;2022-07-11T03:49:08;1.98;;;1.87;;
58978;SDS011;44763;50.464;30.612;2022-07-11T03:51:34;4.22;;;1.75;;
58978;SDS011;44763;50.464;30.612;2022-07-11T03:54:00;1.05;;;0.88;;
58978;SDS011;44763;50.464;30.612;2022-07-11T03:56:26;1.87;;;0.90;;
58978;SDS011;44763;50.464;30.612;2022-07-11T03:58:53;1.77;;;1.17;;
58978;SDS011;44763;50.464;30.612;2022-07-11T04:03:47;0.57;;;0.57;;
58978;SDS011;44763;50.464;30.612;2022-07-11T04:06:14;0.90;;;0.70;;
58978;SDS011;44763;50.464;30.612;2022-07-11T04:08:41;0.42;;;0.37;;
58978;SDS011;44763;50.464;30.612;2022-07-11T04:11:10;0.35;;;0.35;;
58978;SDS011;44763;50.464;30.612;2022-07-11T04:13:36;2.58;;;0.60;;
58978;SDS011;44763;50.464;30.612;2022-07-11T04:16:03;0.70;;;0.57;;
58978;SDS011;44763;50.464;30.612;2022-07-11T04:18:31;1.12;;;0.57;;
58978;SDS011;44763;50.464;30.612;2022-07-11T04:23:24;1.60;;;1.17;;
58978;SDS011;44763;50.464;30.612;2022-07-11T04:25:50;0.90;;;0.80;;
58978;SDS011;44763;50.464;30.612;2022-07-11T04:28:16;1.02;;;0.95;;
58978;SDS011;44763;50.464;30.612;2022-07-11T04:30:42;0.80;;;0.80;;
58978;SDS011;44763;50.464;30.612;2022-07-11T04:33:09;1.72;;;1.20;;
58978;SDS011;44763;50.464;30.612;2022-07-11T04:35:36;0.60;;;0.50;;
58978;SDS011;44763;50.464;30.612;2022-07-11T04:38:03;2.50;;;1.25;;
58978;SDS011;44763;50.464;30.612;2022-07-11T04:40:29;2.83;;;1.30;;
58978;SDS011;44763;50.464;30.612;2022-07-11T04:42:56;1.37;;;1.17;;
58978;SDS011;44763;50.464;30.612;2022-07-11T04:47:50;1.37;;;0.95;;
58978;SDS011;44763;50.464;30.612;2022-07-11T04:52:42;1.45;;;1.05;;
58978;SDS011;44763;50.464;30.612;2022-07-11T04:55:08;2.65;;;2.33;;
58978;SDS011;44763;50.464;30.612;2022-07-11T04:57:34;1.15;;;0.93;;
58978;SDS011;44763;50.464;30.612;2022-07-11T05:02:27;0.90;;;0.90;;
58978;SDS011;44763;50.464;30.612;2022-07-11T05:04:54;0.93;;;0.72;;
58978;SDS011;44763;50.464;30.612;2022-07-11T05:07:21;2.37;;;0.85;;
58978;SDS011;44763;50.464;30.612;2022-07-11T05:09:48;2.25;;;1.02;;
58978;SDS011;44763;50.464;30.612;2022-07-11T05:17:41;1.57;;;0.90;;
58978;SDS011;44763;50.464;30.612;2022-07-11T05:20:07;3.87;;;1.05;;
58978;SDS011;44763;50.464;30.612;2022-07-11T05:22:35;1.75;;;0.95;;
58978;SDS011;44763;50.464;30.612;2022-07-11T05:25:03;1.47;;;1.15;;
58978;SDS011;44763;50.464;30.612;2022-07-11T05:27:31;3.40;;;1.70;;
58978;SDS011;44763;50.464;30.612;2022-07-11T05:29:57;2.33;;;1.00;;
58978;SDS011;44763;50.464;30.612;2022-07-11T05:32:24;2.22;;;1.98;;
58978;SDS011;44763;50.464;30.612;2022-07-11T05:34:51;2.80;;;1.35;;
58978;SDS011;44763;50.464;30.612;2022-07-11T05:37:20;2.20;;;2.00;;
58978;SDS011;44763;50.464;30.612;2022-07-11T05:42:12;1.55;;;1.20;;
58978;SDS011;44763;50.464;30.612;2022-07-11T05:44:39;3.27;;;1.95;;
58978;SDS011;44763;50.464;30.612;2022-07-11T05:47:07;1.90;;;1.80;;
58978;SDS011;44763;50.464;30.612;2022-07-11T05:49:35;2.08;;;1.98;;
58978;SDS011;44763;50.464;30.612;2022-07-11T05:52:02;3.10;;;2.67;;
58978;SDS011;44763;50.464;30.612;2022-07-11T05:54:30;5.20;;;3.40;;
58978;SDS011;44763;50.464;30.612;2022-07-11T05:56:56;3.22;;;3.02;;
58978;SDS011;44763;50.464;30.612;2022-07-11T06:01:48;3.17;;;2.58;;
58978;SDS011;44763;50.464;30.612;2022-07-11T06:04:15;3.98;;;2.87;;
58978;SDS011;44763;50.464;30.612;2022-07-11T06:06:42;7.58;;;4.40;;
58978;SDS011;44763;50.464;30.612;2022-07-11T06:11:35;4.45;;;3.37;;
58978;SDS011;44763;50.464;30.612;2022-07-11T06:14:02;6.20;;;3.98;;
58978;SDS011;44763;50.464;30.612;2022-07-11T06:16:29;4.62;;;4.10;;
58978;SDS011;44763;50.464;30.612;2022-07-11T06:18:56;5.03;;;3.30;;
58978;SDS011;44763;50.464;30.612;2022-07-11T06:21:23;6.25;;;4.12;;
58978;SDS011;44763;50.464;30.612;2022-07-11T06:23:51;6.40;;;4.05;;
58978;SDS011;44763;50.464;30.612;2022-07-11T06:26:17;5.75;;;3.50;;
58978;SDS011;44763;50.464;30.612;2022-07-11T06:28:43;4.35;;;3.30;;
58978;SDS011;44763;50.464;30.612;2022-07-11T06:31:09;6.58;;;2.83;;
58978;SDS011;44763;50.464;30.612;2022-07-11T06:33:36;3.47;;;2.70;;
58978;SDS011;44763;50.464;30.612;2022-07-11T06:36:04;6.42;;;2.72;;
58978;SDS011;44763;50.464;30.612;2022-07-11T06:38:32;7.10;;;3.58;;
58978;SDS011;44763;50.464;30.612;2022-07-11T06:40:59;3.83;;;3.20;;
58978;SDS011;44763;50.464;30.612;2022-07-11T06:43:30;5.33;;;3.95;;
58978;SDS011;44763;50.464;30.612;2022-07-11T06:45:56;4.10;;;2.65;;
58978;SDS011;44763;50.464;30.612;2022-07-11T06:48:23;6.17;;;2.55;;
58978;SDS011;44763;50.464;30.612;2022-07-11T06:50:49;2.52;;;2.27;;
58978;SDS011;44763;50.464;30.612;2022-07-11T06:53:16;2.70;;;2.45;;
58978;SDS011;44763;50.464;30.612;2022-07-11T06:55:43;2.22;;;1.47;;
58978;SDS011;44763;50.464;30.612;2022-07-11T06:58:09;2.02;;;1.80;;
58978;SDS011;44763;50.464;30.612;2022-07-11T07:00:35;1.52;;;0.75;;
58978;SDS011;44763;50.464;30.612;2022-07-11T07:03:02;2.58;;;1.25;;
58978;SDS011;44763;50.464;30.612;2022-07-11T07:05:28;1.22;;;0.62;;
58978;SDS011;44763;50.464;30.612;2022-07-11T07:07:54;0.80;;;0.80;;
58978;SDS011;44763;50.464;30.612;2022-07-11T07:10:21;1.20;;;0.98;;
58978;SDS011;44763;50.464;30.612;2022-07-11T07:12:47;0.57;;;0.57;;
58978;SDS011;44763;50.464;30.612;2022-07-11T07:15:13;0.93;;;0.53;;
58978;SDS011;44763;50.464;30.612;2022-07-11T07:17:39;2.10;;;0.90;;
58978;SDS011;44763;50.464;30.612;2022-07-11T07:20:05;4.12;;;0.70;;
58978;SDS011;44763;50.464;30.612;2022-07-11T07:22:34;0.75;;;0.35;;
58978;SDS011;44763;50.464;30.612;2022-07-11T07:25:01;1.20;;;0.47;;
58978;SDS011;44763;50.464;30.612;2022-07-11T07:27:27;0.42;;;0.40;;
58978;SDS011;44763;50.464;30.612;2022-07-11T07:29:53;0.57;;;0.37;;
58978;SDS011;44763;50.464;30.612;2022-07-11T07:32:20;1.75;;;0.50;;
58978;SDS011;44763;50.464;30.612;2022-07-11T07:34:46;0.30;;;0.30;;
58978;SDS011;44763;50.464;30.612;2022-07-11T07:37:12;0.90;;;0.57;;
58978;SDS011;44763;50.464;30.612;2022-07-11T07:39:39;0.82;;;0.50;;
58978;SDS011;44763;50.464;30.612;2022-07-11T07:42:06;1.05;;;0.80;;
58978;SDS011;44763;50.464;30.612;2022-07-11T07:44:33;0.60;;;0.60;;
58978;SDS011;44763;50.464;30.612;2022-07-11T07:47:00;2.45;;;0.90;;
58978;SDS011;44763;50.464;30.612;2022-07-11T07:49:27;0.60;;;0.42;;
58978;SDS011;44763;50.464;30.612;2022-07-11T07:51:53;1.75;;;0.70;;
58978;SDS011;44763;50.464;30.612;2022-07-11T07:54:19;1.65;;;0.60;;
58978;SDS011;44763;50.464;30.612;2022-07-11T07:56:46;6.22;;;0.47;;
58978;SDS011;44763;50.464;30.612;2022-07-11T07:59:12;0.50;;;0.20;;
58978;SDS011;44763;50.464;30.612;2022-07-11T08:01:38;1.32;;;0.70;;
58978;SDS011;44763;50.464;30.612;2022-07-11T08:04:06;0.35;;;0.20;;
58978;SDS011;44763;50.464;30.612;2022-07-11T08:06:35;1.65;;;0.45;;
58978;SDS011;44763;50.464;30.612;2022-07-11T08:09:04;1.50;;;0.20;;
58978;SDS011;44763;50.464;30.612;2022-07-11T08:11:32;0.25;;;0.25;;
58978;SDS011;44763;50.464;30.612;2022-07-11T08:14:00;1.30;;;0.20;;
58978;SDS011;44763;50.464;30.612;2022-07-11T08:16:29;1.50;;;0.47;;
58978;SDS011;44763;50.464;30.612;2022-07-11T08:18:58;2.95;;;0.78;;
58978;SDS011;44763;50.464;30.612;2022-07-11T08:21:28;1.60;;;1.50;;
58978;SDS011;44763;50.464;30.612;2022-07-11T08:23:55;1.35;;;0.50;;
58978;SDS011;44763;50.464;30.612;2022-07-11T08:26:22;1.45;;;0.40;;
58978;SDS011;44763;50.464;30.612;2022-07-11T08:28:48;5.33;;;0.42;;
58978;SDS011;44763;50.464;30.612;2022-07-11T08:31:16;1.55;;;0.53;;
58978;SDS011;44763;50.464;30.612;2022-07-11T08:33:44;0.93;;;0.40;;
58978;SDS011;44763;50.464;30.612;2022-07-11T08:36:11;0.50;;;0.40;;
58978;SDS011;44763;50.464;30.612;2022-07-11T08:38:37;3.02;;;0.50;;
58978;SDS011;44763;50.464;30.612;2022-07-11T08:41:05;0.85;;;0.30;;
58978;SDS011;44763;50.464;30.612;2022-07-11T08:43:31;2.70;;;0.30;;
58978;SDS011;44763;50.464;30.612;2022-07-11T08:45:59;2.15;;;0.33;;
58978;SDS011;44763;50.464;30.612;2022-07-11T08:48:26;1.37;;;0.45;;
58978;SDS011;44763;50.464;30.612;2022-07-11T08:50:53;1.40;;;0.53;;
58978;SDS011;44763;50.464;30.612;2022-07-11T08:53:21;2.40;;;0.65;;
58978;SDS011;44763;50.464;30.612;2022-07-11T08:55:47;0.62;;;0.20;;
58978;SDS011;44763;50.464;30.612;2022-07-11T08:58:14;0.30;;;0.30;;
58978;SDS011;44763;50.464;30.612;2022-07-11T09:00:41;0.62;;;0.40;;
58978;SDS011;44763;50.464;30.612;2022-07-11T09:03:10;2.77;;;2.47;;
58978;SDS011;44763;50.464;30.612;2022-07-11T09:05:42;3.65;;;0.47;;
58978;SDS011;44763;50.464;30.612;2022-07-11T09:08:09;1.15;;;0.47;;
58978;SDS011;44763;50.464;30.612;2022-07-11T09:10:39;0.55;;;0.20;;
58978;SDS011;44763;50.464;30.612;2022-07-11T09:13:06;0.65;;;0.20;;
58978;SDS011;44763;50.464;30.612;2022-07-11T09:15:38;0.82;;;0.23;;
58978;SDS011;44763;50.464;30.612;2022-07-11T09:23:55;0.40;;;0.10;;
58978;SDS011;44763;50.464;30.612;2022-07-11T09:26:44;0.40;;;0.20;;
58978;SDS011;44763;50.464;30.612;2022-07-11T09:29:18;1.87;;;0.98;;
58978;SDS011;44763;50.464;30.612;2022-07-11T09:31:46;0.78;;;0.37;;
58978;SDS011;44763;50.464;30.612;2022-07-11T09:34:15;1.30;;;0.72;;
58978;SDS011;44763;50.464;30.612;2022-07-11T09:36:45;1.10;;;0.65;;
58978;SDS011;44763;50.464;30.612;2022-07-11T09:39:18;2.35;;;0.33;;
58978;SDS011;44763;50.464;30.612;2022-07-11T09:41:48;1.00;;;0.20;;
58978;SDS011;44763;50.464;30.612;2022-07-11T09:44:17;3.33;;;0.30;;
58978;SDS011;44763;50.464;30.612;2022-07-11T09:46:46;1.87;;;0.40;;
58978;SDS011;44763;50.464;30.612;2022-07-11T09:49:15;1.42;;;0.20;;
58978;SDS011;44763;50.464;30.612;2022-07-11T09:59:59;1.90;;;0.20;;
58978;SDS011;44763;50.464;30.612;2022-07-11T10:02:30;0.70;;;0.20;;
58978;SDS011;44763;50.464;30.612;2022-07-11T10:04:57;1.57;;;0.42;;
58978;SDS011;44763;50.464;30.612;2022-07-11T10:07:25;0.88;;;0.72;;
58978;SDS011;44763;50.464;30.612;2022-07-11T10:09:54;0.68;;;0.23;;
58978;SDS011;44763;50.464;30.612;2022-07-11T10:12:21;0.57;;;0.15;;
58978;SDS011;44763;50.464;30.612;2022-07-11T10:14:48;1.07;;;0.20;;
58978;SDS011;44763;50.464;30.612;2022-07-11T10:29:03;3.20;;;0.60;;
58978;SDS011;44763;50.464;30.612;2022-07-11T10:31:41;1.75;;;1.52;;
58978;SDS011;44763;50.464;30.612;2022-07-11T10:34:09;1.10;;;0.15;;
58978;SDS011;44763;50.464;30.612;2022-07-11T10:36:41;1.72;;;0.13;;
58978;SDS011;44763;50.464;30.612;2022-07-11T10:39:19;2.98;;;0.20;;
58978;SDS011;44763;50.464;30.612;2022-07-11T10:41:52;0.37;;;0.10;;
58978;SDS011;44763;50.464;30.612;2022-07-11T10:44:20;4.33;;;0.20;;
58978;SDS011;44763;50.464;30.612;2022-07-11T10:46:49;1.07;;;0.10;;
58978;SDS011;44763;50.464;30.612;2022-07-11T10:49:16;0.40;;;0.10;;
58978;SDS011;44763;50.464;30.612;2022-07-11T10:51:57;0.42;;;0.20;;
58978;SDS011;44763;50.464;30.612;2022-07-11T10:54:37;2.47;;;0.42;;
58978;SDS011;44763;50.464;30.612;2022-07-11T10:57:35;0.33;;;0.17;;
58978;SDS011;44763;50.464;30.612;2022-07-11T11:00:11;0.40;;;0.10;;
58978;SDS011;44763;50.464;30.612;2022-07-11T11:03:16;4.10;;;2.20;;
58978;SDS011;44763;50.464;30.612;2022-07-11T11:05:40;7.75;;;2.80;;
58978;SDS011;44763;50.464;30.612;2022-07-11T11:16:45;2.58;;;1.55;;
58978;SDS011;44763;50.464;30.612;2022-07-11T11:19:50;6.42;;;2.72;;
58978;SDS011;44763;50.464;30.612;2022-07-11T11:22:16;1.90;;;1.30;;
58978;SDS011;44763;50.464;30.612;2022-07-11T11:24:46;12.18;;;1.70;;
58978;SDS011;44763;50.464;30.612;2022-07-11T11:27:23;1.50;;;1.32;;
58978;SDS011;44763;50.464;30.612;2022-07-11T11:29:50;2.20;;;1.20;;
58978;SDS011;44763;50.464;30.612;2022-07-11T11:32:19;2.47;;;1.77;;
58978;SDS011;44763;50.464;30.612;2022-07-11T11:34:48;4.67;;;1.45;;
58978;SDS011;44763;50.464;30.612;2022-07-11T11:37:15;2.87;;;1.60;;
58978;SDS011;44763;50.464;30.612;2022-07-11T11:39:43;4.37;;;1.45;;
58978;SDS011;44763;50.464;30.612;2022-07-11T11:42:14;1.90;;;1.22;;
58978;SDS011;44763;50.464;30.612;2022-07-11T11:44:50;2.90;;;1.77;;
58978;SDS011;44763;50.464;30.612;2022-07-11T11:47:20;7.22;;;1.55;;
58978;SDS011;44763;50.464;30.612;2022-07-11T11:49:46;3.17;;;0.80;;
58978;SDS011;44763;50.464;30.612;2022-07-11T11:52:14;2.75;;;0.78;;
58978;SDS011;44763;50.464;30.612;2022-07-11T11:54:42;1.17;;;0.70;;
58978;SDS011;44763;50.464;30.612;2022-07-11T11:57:09;1.30;;;1.15;;
58978;SDS011;44763;50.464;30.612;2022-07-11T11:59:42;3.98;;;1.12;;
58978;SDS011;44763;50.464;30.612;2022-07-11T12:02:10;3.98;;;1.52;;
58978;SDS011;44763;50.464;30.612;2022-07-11T12:04:37;0.78;;;0.50;;
58978;SDS011;44763;50.464;30.612;2022-07-11T12:07:04;1.92;;;1.00;;
58978;SDS011;44763;50.464;30.612;2022-07-11T12:09:31;0.60;;;0.60;;
58978;SDS011;44763;50.464;30.612;2022-07-11T12:12:20;0.88;;;0.28;;
58978;SDS011;44763;50.464;30.612;2022-07-11T12:15:26;2.25;;;0.75;;
58978;SDS011;44763;50.464;30.612;2022-07-11T12:18:01;1.25;;;0.93;;
58978;SDS011;44763;50.464;30.612;2022-07-11T12:20:33;2.02;;;1.00;;
58978;SDS011;44763;50.464;30.612;2022-07-11T12:23:06;1.40;;;0.72;;
58978;SDS011;44763;50.464;30.612;2022-07-11T12:25:35;5.67;;;1.17;;
58978;SDS011;44763;50.464;30.612;2022-07-11T12:28:01;2.90;;;0.70;;
58978;SDS011;44763;50.464;30.612;2022-07-11T12:30:29;1.17;;;1.05;;
58978;SDS011;44763;50.464;30.612;2022-07-11T12:33:02;3.80;;;1.02;;
58978;SDS011;44763;50.464;30.612;2022-07-11T12:35:37;3.17;;;1.05;;
58978;SDS011;44763;50.464;30.612;2022-07-11T12:38:25;1.05;;;0.95;;
58978;SDS011;44763;50.464;30.612;2022-07-11T12:41:02;2.35;;;1.62;;
58978;SDS011;44763;50.464;30.612;2022-07-11T12:43:41;2.30;;;2.12;;
58978;SDS011;44763;50.464;30.612;2022-07-11T12:46:35;6.00;;;3.20;;
58978;SDS011;44763;50.464;30.612;2022-07-11T12:49:03;5.40;;;1.60;;
58978;SDS011;44763;50.464;30.612;2022-07-11T12:51:34;4.97;;;2.17;;
58978;SDS011;44763;50.464;30.612;2022-07-11T12:54:09;2.20;;;1.60;;
58978;SDS011;44763;50.464;30.612;2022-07-11T12:56:40;2.47;;;2.17;;
58978;SDS011;44763;50.464;30.612;2022-07-11T12:59:27;4.30;;;2.60;;
58978;SDS011;44763;50.464;30.612;2022-07-11T13:04:39;6.40;;;2.08;;
58978;SDS011;44763;50.464;30.612;2022-07-11T13:10:20;5.53;;;2.67;;
58978;SDS011;44763;50.464;30.612;2022-07-11T13:12:54;2.52;;;1.98;;
58978;SDS011;44763;50.464;30.612;2022-07-11T13:15:21;2.77;;;2.55;;
58978;SDS011;44763;50.464;30.612;2022-07-11T13:17:49;4.10;;;2.47;;
58978;SDS011;44763;50.464;30.612;2022-07-11T13:20:23;3.30;;;3.02;;
58978;SDS011;44763;50.464;30.612;2022-07-11T13:22:53;5.55;;;3.05;;
58978;SDS011;44763;50.464;30.612;2022-07-11T13:25:20;3.35;;;2.95;;
58978;SDS011;44763;50.464;30.612;2022-07-11T13:27:47;5.55;;;3.08;;
58978;SDS011;44763;50.464;30.612;2022-07-11T13:30:15;5.12;;;2.70;;
58978;SDS011;44763;50.464;30.612;2022-07-11T13:32:45;9.45;;;3.05;;
58978;SDS011;44763;50.464;30.612;2022-07-11T13:35:13;6.22;;;3.58;;
58978;SDS011;44763;50.464;30.612;2022-07-11T13:37:40;10.53;;;3.00;;
58978;SDS011;44763;50.464;30.612;2022-07-11T13:40:08;8.05;;;4.45;;
58978;SDS011;44763;50.464;30.612;2022-07-11T13:42:40;6.80;;;4.30;;
58978;SDS011;44763;50.464;30.612;2022-07-11T13:45:09;6.62;;;5.92;;
58978;SDS011;44763;50.464;30.612;2022-07-11T13:47:36;8.38;;;5.75;;
58978;SDS011;44763;50.464;30.612;2022-07-11T13:50:03;5.15;;;4.70;;
58978;SDS011;44763;50.464;30.612;2022-07-11T13:52:30;7.80;;;5.42;;
58978;SDS011;44763;50.464;30.612;2022-07-11T13:54:57;4.65;;;4.20;;
58978;SDS011;44763;50.464;30.612;2022-07-11T13:57:24;9.55;;;8.10;;
58978;SDS011;44763;50.464;30.612;2022-07-11T13:59:51;7.80;;;4.00;;
58978;SDS011;44763;50.464;30.612;2022-07-11T14:02:17;8.60;;;4.45;;
58978;SDS011;44763;50.464;30.612;2022-07-11T14:07:12;6.35;;;3.90;;
58978;SDS011;44763;50.464;30.612;2022-07-11T14:09:40;4.25;;;3.75;;
58978;SDS011;44763;50.464;30.612;2022-07-11T14:12:07;6.72;;;4.05;;
58978;SDS011;44763;50.464;30.612;2022-07-11T14:14:37;3.75;;;3.05;;
58978;SDS011;44763;50.464;30.612;2022-07-11T14:19:31;6.25;;;4.50;;
58978;SDS011;44763;50.464;30.612;2022-07-11T14:21:59;10.00;;;9.00;;
58978;SDS011;44763;50.464;30.612;2022-07-11T14:24:25;9.63;;;4.78;;
58978;SDS011;44763;50.464;30.612;2022-07-11T14:26:52;8.03;;;4.58;;
58978;SDS011;44763;50.464;30.612;2022-07-11T14:29:18;8.50;;;3.67;;
58978;SDS011;44763;50.464;30.612;2022-07-11T14:31:45;5.78;;;3.05;;
58978;SDS011;44763;50.464;30.612;2022-07-11T14:34:11;9.13;;;6.55;;
58978;SDS011;44763;50.464;30.612;2022-07-11T14:36:38;4.33;;;3.02;;
58978;SDS011;44763;50.464;30.612;2022-07-11T14:41:30;4.58;;;1.65;;
58978;SDS011;44763;50.464;30.612;2022-07-11T14:43:57;7.12;;;2.27;;
58978;SDS011;44763;50.464;30.612;2022-07-11T14:46:23;3.80;;;2.12;;
58978;SDS011;44763;50.464;30.612;2022-07-11T14:48:49;4.62;;;2.45;;
58978;SDS011;44763;50.464;30.612;2022-07-11T14:51:16;3.92;;;2.00;;
58978;SDS011;44763;50.464;30.612;2022-07-11T14:53:42;4.00;;;2.87;;
58978;SDS011;44763;50.464;30.612;2022-07-11T14:56:08;3.75;;;2.30;;
58978;SDS011;44763;50.464;30.612;2022-07-11T14:58:35;2.87;;;2.33;;
58978;SDS011;44763;50.464;30.612;2022-07-11T15:01:01;4.37;;;1.85;;
58978;SDS011;44763;50.464;30.612;2022-07-11T15:03:28;3.20;;;2.08;;
58978;SDS011;44763;50.464;30.612;2022-07-11T15:06:04;6.50;;;1.40;;
58978;SDS011;44763;50.464;30.612;2022-07-11T15:08:34;2.15;;;1.60;;
58978;SDS011;44763;50.464;30.612;2022-07-11T15:11:19;3.52;;;2.30;;
58978;SDS011;44763;50.464;30.612;2022-07-11T15:14:05;4.08;;;2.17;;
58978;SDS011;44763;50.464;30.612;2022-07-11T15:16:32;2.10;;;1.12;;
58978;SDS011;44763;50.464;30.612;2022-07-11T15:19:00;4.47;;;1.42;;
58978;SDS011;44763;50.464;30.612;2022-07-11T15:21:28;3.80;;;1.35;;
58978;SDS011;44763;50.464;30.612;2022-07-11T15:23:55;4.57;;;1.33;;
58978;SDS011;44763;50.464;30.612;2022-07-11T15:26:21;1.77;;;1.02;;
58978;SDS011;44763;50.464;30.612;2022-07-11T15:28:49;1.25;;;1.05;;
58978;SDS011;44763;50.464;30.612;2022-07-11T15:31:16;4.80;;;1.62;;
58978;SDS011;44763;50.464;30.612;2022-07-11T15:36:10;3.37;;;1.20;;
58978;SDS011;44763;50.464;30.612;2022-07-11T15:38:37;3.67;;;2.60;;
58978;SDS011;44763;50.464;30.612;2022-07-11T15:41:04;2.47;;;0.93;;
58978;SDS011;44763;50.464;30.612;2022-07-11T15:43:30;2.02;;;1.50;;
58978;SDS011;44763;50.464;30.612;2022-07-11T15:45:58;4.67;;;4.10;;
58978;SDS011;44763;50.464;30.612;2022-07-11T15:48:26;4.70;;;3.77;;
58978;SDS011;44763;50.464;30.612;2022-07-11T15:50:54;2.45;;;1.35;;
58978;SDS011;44763;50.464;30.612;2022-07-11T15:53:21;4.85;;;3.92;;
58978;SDS011;44763;50.464;30.612;2022-07-11T15:55:47;1.82;;;1.30;;
58978;SDS011;44763;50.464;30.612;2022-07-11T15:58:14;2.40;;;0.82;;
58978;SDS011;44763;50.464;30.612;2022-07-11T16:00:40;1.25;;;0.80;;
58978;SDS011;44763;50.464;30.612;2022-07-11T16:03:09;1.10;;;1.05;;
58978;SDS011;44763;50.464;30.612;2022-07-11T16:08:03;1.15;;;0.53;;
58978;SDS011;44763;50.464;30.612;2022-07-11T16:10:29;4.05;;;1.98;;
58978;SDS011;44763;50.464;30.612;2022-07-11T16:12:55;3.98;;;1.92;;
58978;SDS011;44763;50.464;30.612;2022-07-11T16:17:49;2.33;;;0.62;;
58978;SDS011;44763;50.464;30.612;2022-07-11T16:20:15;1.32;;;0.50;;
58978;SDS011;44763;50.464;30.612;2022-07-11T16:22:44;1.65;;;0.90;;
58978;SDS011;44763;50.464;30.612;2022-07-11T16:25:10;2.55;;;1.72;;
58978;SDS011;44763;50.464;30.612;2022-07-11T16:27:37;1.02;;;0.60;;